sensor_id;sensor_type;location;lat;lon;timestamp;pressure;altitude;pressure_sealevel;temperature;humidity
8051;BME280;4068;42.158;24.732;2023-06-01T00:00:13;99689.44;;;16.63;100.00
8051;BME280;4068;42.158;24.732;2023-06-01T00:02:39;99721.72;;;16.87;100.00
8051;BME280;4068;42.158;24.732;2023-06-01T00:05:06;99713.56;;;16.89;100.00
8051;BME280;4068;42.158;24.732;2023-06-01T00:07:32;99683.91;;;16.64;100.00
8051;BME280;4068;42.158;24.732;2023-06-01T00:09:58;99705.75;;;16.78;100.00
8051;BME280;4068;42.158;24.732;2023-06-01T00:12:25;99714.63;;;16.78;100.00
8051;BME280;4068;42.158;24.732;2023-06-01T00:14:50;99716.47;;;16.78;100.00
8051;BME280;4068;42.158;24.732;2023-06-01T00:17:16;99703.38;;;16.66;100.00
8051;BME280;4068;42.158;24.732;2023-06-01T00:19:41;99720.81;;;16.79;100.00
8051;BME280;4068;42.158;24.732;2023-06-01T00:22:10;99720.81;;;16.79;100.00
8051;BME280;4068;42.158;24.732;2023-06-01T00:24:36;99713.47;;;16.81;100.00
8051;BME280;4068;42.158;24.732;2023-06-01T00:27:02;99720.19;;;16.85;100.00
8051;BME280;4068;42.158;24.732;2023-06-01T00:29:27;99723.50;;;16.79;100.00
8051;BME280;4068;42.158;24.732;2023-06-01T00:31:53;99713.31;;;16.82;100.00
8051;BME280;4068;42.158;24.732;2023-06-01T00:34:18;99721.84;;;16.78;100.00
8051;BME280;4068;42.158;24.732;2023-06-01T00:36:44;99723.91;;;16.66;100.00
8051;BME280;4068;42.158;24.732;2023-06-01T00:39:09;99721.69;;;16.53;100.00
8051;BME280;4068;42.158;24.732;2023-06-01T00:41:34;99707.81;;;16.31;100.00
8051;BME280;4068;42.158;24.732;2023-06-01T00:44:00;99726.88;;;16.28;100.00
8051;BME280;4068;42.158;24.732;2023-06-01T00:46:27;99728.16;;;16.24;100.00
8051;BME280;4068;42.158;24.732;2023-06-01T00:48:53;99724.22;;;16.10;100.00
8051;BME280;4068;42.158;24.732;2023-06-01T00:51:19;99691.44;;;15.90;100.00
8051;BME280;4068;42.158;24.732;2023-06-01T00:53:45;99727.19;;;16.07;100.00
8051;BME280;4068;42.158;24.732;2023-06-01T00:56:11;99693.50;;;15.78;100.00
8051;BME280;4068;42.158;24.732;2023-06-01T00:58:40;99724.84;;;15.86;100.00
8051;BME280;4068;42.158;24.732;2023-06-01T01:01:06;99728.41;;;15.77;100.00
8051;BME280;4068;42.158;24.732;2023-06-01T01:03:33;99723.53;;;15.72;100.00
8051;BME280;4068;42.158;24.732;2023-06-01T01:06:39;99724.75;;;15.78;100.00
8051;BME280;4068;42.158;24.732;2023-06-01T01:11:33;99737.72;;;15.73;100.00
8051;BME280;4068;42.158;24.732;2023-06-01T01:14:05;99733.84;;;15.67;100.00
8051;BME280;4068;42.158;24.732;2023-06-01T01:20:06;99731.22;;;15.57;100.00
8051;BME280;4068;42.158;24.732;2023-06-01T01:30:56;99732.09;;;15.30;100.00
8051;BME280;4068;42.158;24.732;2023-06-01T01:33:24;99712.06;;;15.16;100.00
8051;BME280;4068;42.158;24.732;2023-06-01T01:35:51;99726.50;;;15.23;100.00
8051;BME280;4068;42.158;24.732;2023-06-01T01:38:18;99698.53;;;14.99;100.00
8051;BME280;4068;42.158;24.732;2023-06-01T01:40:43;99735.88;;;15.09;100.00
8051;BME280;4068;42.158;24.732;2023-06-01T01:43:09;99726.38;;;14.97;100.00
8051;BME280;4068;42.158;24.732;2023-06-01T01:45:34;99731.88;;;14.95;100.00
8051;BME280;4068;42.158;24.732;2023-06-01T01:49:23;99725.28;;;14.90;100.00
8051;BME280;4068;42.158;24.732;2023-06-01T01:54:05;99730.06;;;14.86;100.00
8051;BME280;4068;42.158;24.732;2023-06-01T01:56:35;99728.56;;;14.74;100.00
8051;BME280;4068;42.158;24.732;2023-06-01T01:59:02;99747.66;;;14.79;100.00
8051;BME280;4068;42.158;24.732;2023-06-01T02:01:28;99733.91;;;14.74;100.00
8051;BME280;4068;42.158;24.732;2023-06-01T02:03:59;99746.25;;;14.75;100.00
8051;BME280;4068;42.158;24.732;2023-06-01T02:06:25;99728.16;;;14.69;100.00
8051;BME280;4068;42.158;24.732;2023-06-01T02:08:50;99752.84;;;14.80;100.00
8051;BME280;4068;42.158;24.732;2023-06-01T02:11:15;99743.44;;;14.76;100.00
8051;BME280;4068;42.158;24.732;2023-06-01T02:13:41;99746.53;;;14.81;100.00
8051;BME280;4068;42.158;24.732;2023-06-01T02:16:06;99750.63;;;14.76;100.00
8051;BME280;4068;42.158;24.732;2023-06-01T02:18:32;99753.13;;;14.77;100.00
8051;BME280;4068;42.158;24.732;2023-06-01T02:20:57;99754.53;;;14.81;100.00
8051;BME280;4068;42.158;24.732;2023-06-01T02:23:23;99756.66;;;14.78;100.00
8051;BME280;4068;42.158;24.732;2023-06-01T02:25:48;99745.88;;;14.70;100.00
8051;BME280;4068;42.158;24.732;2023-06-01T02:28:13;99739.25;;;14.74;100.00
8051;BME280;4068;42.158;24.732;2023-06-01T02:30:39;99759.19;;;14.79;100.00
8051;BME280;4068;42.158;24.732;2023-06-01T02:33:04;99755.34;;;14.82;100.00
8051;BME280;4068;42.158;24.732;2023-06-01T02:35:30;99756.91;;;14.84;100.00
8051;BME280;4068;42.158;24.732;2023-06-01T02:37:55;99720.44;;;14.65;100.00
8051;BME280;4068;42.158;24.732;2023-06-01T02:40:22;99753.41;;;14.84;100.00
8051;BME280;4068;42.158;24.732;2023-06-01T02:42:47;99739.41;;;14.72;100.00
8051;BME280;4068;42.158;24.732;2023-06-01T02:45:12;99748.38;;;14.81;100.00
8051;BME280;4068;42.158;24.732;2023-06-01T02:47:38;99760.16;;;14.78;100.00
8051;BME280;4068;42.158;24.732;2023-06-01T02:50:03;99763.66;;;14.79;100.00
8051;BME280;4068;42.158;24.732;2023-06-01T02:52:30;99746.81;;;14.78;100.00
8051;BME280;4068;42.158;24.732;2023-06-01T02:54:56;99753.53;;;14.92;100.00
8051;BME280;4068;42.158;24.732;2023-06-01T02:57:21;99753.34;;;15.04;100.00
8051;BME280;4068;42.158;24.732;2023-06-01T02:59:47;99757.63;;;15.14;100.00
8051;BME280;4068;42.158;24.732;2023-06-01T03:02:12;99755.06;;;15.23;100.00
8051;BME280;4068;42.158;24.732;2023-06-01T03:04:38;99747.00;;;15.32;100.00
8051;BME280;4068;42.158;24.732;2023-06-01T03:07:04;99756.19;;;15.48;100.00
8051;BME280;4068;42.158;24.732;2023-06-01T03:09:29;99746.88;;;15.52;100.00
8051;BME280;4068;42.158;24.732;2023-06-01T03:11:55;99766.22;;;15.64;100.00
8051;BME280;4068;42.158;24.732;2023-06-01T03:14:20;99769.81;;;15.73;100.00
8051;BME280;4068;42.158;24.732;2023-06-01T03:16:46;99743.00;;;15.64;100.00
8051;BME280;4068;42.158;24.732;2023-06-01T03:19:11;99759.72;;;15.66;100.00
8051;BME280;4068;42.158;24.732;2023-06-01T03:21:36;99773.28;;;15.83;100.00
8051;BME280;4068;42.158;24.732;2023-06-01T03:24:02;99761.06;;;15.98;100.00
8051;BME280;4068;42.158;24.732;2023-06-01T03:26:27;99767.53;;;16.76;100.00
8051;BME280;4068;42.158;24.732;2023-06-01T03:28:53;99789.03;;;17.62;100.00
8051;BME280;4068;42.158;24.732;2023-06-01T03:31:18;99779.75;;;18.32;100.00
8051;BME280;4068;42.158;24.732;2023-06-01T03:33:44;99808.72;;;19.10;100.00
8051;BME280;4068;42.158;24.732;2023-06-01T03:36:10;99811.78;;;19.47;100.00
8051;BME280;4068;42.158;24.732;2023-06-01T03:38:35;99815.06;;;19.65;100.00
8051;BME280;4068;42.158;24.732;2023-06-01T03:41:00;99809.00;;;19.63;100.00
8051;BME280;4068;42.158;24.732;2023-06-01T03:43:26;99798.41;;;19.62;100.00
8051;BME280;4068;42.158;24.732;2023-06-01T03:45:52;99811.22;;;19.60;100.00
8051;BME280;4068;42.158;24.732;2023-06-01T03:48:17;99793.69;;;19.33;100.00
8051;BME280;4068;42.158;24.732;2023-06-01T03:50:43;99789.56;;;19.05;100.00
8051;BME280;4068;42.158;24.732;2023-06-01T03:53:08;99802.00;;;19.06;100.00
8051;BME280;4068;42.158;24.732;2023-06-01T03:55:34;99805.13;;;19.26;100.00
8051;BME280;4068;42.158;24.732;2023-06-01T03:58:01;99803.50;;;19.17;100.00
8051;BME280;4068;42.158;24.732;2023-06-01T04:00:27;99808.75;;;19.42;100.00
8051;BME280;4068;42.158;24.732;2023-06-01T04:02:55;99797.38;;;19.31;100.00
8051;BME280;4068;42.158;24.732;2023-06-01T04:05:22;99808.19;;;19.55;100.00
8051;BME280;4068;42.158;24.732;2023-06-01T04:07:49;99811.31;;;19.66;100.00
8051;BME280;4068;42.158;24.732;2023-06-01T04:10:15;99814.78;;;19.83;100.00
8051;BME280;4068;42.158;24.732;2023-06-01T04:12:46;99800.53;;;19.75;100.00
8051;BME280;4068;42.158;24.732;2023-06-01T04:15:13;99822.47;;;19.95;100.00
8051;BME280;4068;42.158;24.732;2023-06-01T04:17:41;99818.53;;;20.06;99.58
8051;BME280;4068;42.158;24.732;2023-06-01T04:20:11;99819.00;;;20.09;99.13
8051;BME280;4068;42.158;24.732;2023-06-01T04:22:38;99807.81;;;19.97;99.33
8051;BME280;4068;42.158;24.732;2023-06-01T04:25:08;99815.13;;;19.89;100.00
8051;BME280;4068;42.158;24.732;2023-06-01T04:27:34;99821.22;;;19.82;100.00
8051;BME280;4068;42.158;24.732;2023-06-01T04:30:07;99801.38;;;19.75;100.00
8051;BME280;4068;42.158;24.732;2023-06-01T04:32:36;99802.22;;;19.76;100.00
8051;BME280;4068;42.158;24.732;2023-06-01T04:35:06;99826.84;;;19.96;100.00
8051;BME280;4068;42.158;24.732;2023-06-01T04:37:37;99822.59;;;20.02;100.00
8051;BME280;4068;42.158;24.732;2023-06-01T04:40:05;99822.47;;;19.95;100.00
8051;BME280;4068;42.158;24.732;2023-06-01T04:42:39;99804.00;;;19.92;100.00
8051;BME280;4068;42.158;24.732;2023-06-01T04:45:06;99828.00;;;20.02;100.00
8051;BME280;4068;42.158;24.732;2023-06-01T04:47:33;99829.31;;;20.06;100.00
8051;BME280;4068;42.158;24.732;2023-06-01T04:50:06;99831.63;;;20.09;100.00
8051;BME280;4068;42.158;24.732;2023-06-01T04:52:37;99826.84;;;20.19;100.00
8051;BME280;4068;42.158;24.732;2023-06-01T04:55:03;99828.28;;;20.30;100.00
8051;BME280;4068;42.158;24.732;2023-06-01T04:57:30;99825.41;;;20.31;100.00
8051;BME280;4068;42.158;24.732;2023-06-01T04:59:56;99807.34;;;20.17;100.00
8051;BME280;4068;42.158;24.732;2023-06-01T05:02:23;99820.50;;;20.35;100.00
8051;BME280;4068;42.158;24.732;2023-06-01T05:04:49;99821.53;;;20.34;100.00
8051;BME280;4068;42.158;24.732;2023-06-01T05:07:15;99825.41;;;20.55;100.00
8051;BME280;4068;42.158;24.732;2023-06-01T05:09:41;99816.66;;;20.52;100.00
8051;BME280;4068;42.158;24.732;2023-06-01T05:12:06;99833.97;;;20.58;100.00
8051;BME280;4068;42.158;24.732;2023-06-01T05:14:32;99828.03;;;20.63;100.00
8051;BME280;4068;42.158;24.732;2023-06-01T05:16:58;99818.63;;;20.59;100.00
8051;BME280;4068;42.158;24.732;2023-06-01T05:19:23;99829.13;;;20.77;100.00
8051;BME280;4068;42.158;24.732;2023-06-01T05:21:48;99820.97;;;20.85;100.00
8051;BME280;4068;42.158;24.732;2023-06-01T05:24:14;99827.53;;;20.82;100.00
8051;BME280;4068;42.158;24.732;2023-06-01T05:26:40;99820.97;;;20.85;100.00
8051;BME280;4068;42.158;24.732;2023-06-01T05:29:05;99824.78;;;21.06;100.00
8051;BME280;4068;42.158;24.732;2023-06-01T05:31:31;99821.63;;;21.17;100.00
8051;BME280;4068;42.158;24.732;2023-06-01T05:33:56;99828.75;;;21.25;100.00
8051;BME280;4068;42.158;24.732;2023-06-01T05:36:22;99835.66;;;21.27;99.78
8051;BME280;4068;42.158;24.732;2023-06-01T05:38:47;99823.19;;;21.41;100.00
8051;BME280;4068;42.158;24.732;2023-06-01T05:41:13;99833.63;;;21.59;97.36
8051;BME280;4068;42.158;24.732;2023-06-01T05:43:38;99814.28;;;21.55;96.26
8051;BME280;4068;42.158;24.732;2023-06-01T05:46:04;99826.44;;;21.66;95.93
8051;BME280;4068;42.158;24.732;2023-06-01T05:48:31;99837.19;;;21.81;95.87
8051;BME280;4068;42.158;24.732;2023-06-01T05:50:56;99837.72;;;21.92;95.40
8051;BME280;4068;42.158;24.732;2023-06-01T05:53:22;99829.31;;;22.01;93.32
8051;BME280;4068;42.158;24.732;2023-06-01T05:55:51;99819.53;;;22.00;92.94
8051;BME280;4068;42.158;24.732;2023-06-01T05:58:16;99831.97;;;22.16;93.40
8051;BME280;4068;42.158;24.732;2023-06-01T06:00:42;99816.47;;;22.03;93.17
8051;BME280;4068;42.158;24.732;2023-06-01T06:05:33;99837.81;;;22.35;92.59
8051;BME280;4068;42.158;24.732;2023-06-01T06:07:58;99829.31;;;22.38;91.43
8051;BME280;4068;42.158;24.732;2023-06-01T06:10:23;99843.31;;;22.48;89.87
8051;BME280;4068;42.158;24.732;2023-06-01T06:12:49;99824.59;;;22.47;89.72
8051;BME280;4068;42.158;24.732;2023-06-01T06:15:16;99832.91;;;22.45;89.82
8051;BME280;4068;42.158;24.732;2023-06-01T06:17:42;99828.66;;;22.57;89.95
8051;BME280;4068;42.158;24.732;2023-06-01T06:20:08;99832.88;;;22.67;89.75
8051;BME280;4068;42.158;24.732;2023-06-01T06:22:34;99834.44;;;22.83;88.90
8051;BME280;4068;42.158;24.732;2023-06-01T06:25:00;99835.59;;;22.95;87.11
8051;BME280;4068;42.158;24.732;2023-06-01T06:27:25;99799.50;;;22.81;87.81
8051;BME280;4068;42.158;24.732;2023-06-01T06:29:51;99836.31;;;23.10;87.69
8051;BME280;4068;42.158;24.732;2023-06-01T06:32:17;99825.50;;;23.10;85.95
8051;BME280;4068;42.158;24.732;2023-06-01T06:34:44;99805.84;;;22.95;85.60
8051;BME280;4068;42.158;24.732;2023-06-01T06:37:10;99827.94;;;23.05;86.09
8051;BME280;4068;42.158;24.732;2023-06-01T06:39:36;99823.00;;;23.09;86.75
8051;BME280;4068;42.158;24.732;2023-06-01T06:42:03;99820.03;;;23.32;85.70
8051;BME280;4068;42.158;24.732;2023-06-01T06:44:30;99821.75;;;23.47;83.68
8051;BME280;4068;42.158;24.732;2023-06-01T06:46:58;99815.63;;;23.31;84.57
8051;BME280;4068;42.158;24.732;2023-06-01T06:49:24;99813.69;;;23.53;84.10
8051;BME280;4068;42.158;24.732;2023-06-01T06:51:50;99813.31;;;23.63;82.46
8051;BME280;4068;42.158;24.732;2023-06-01T06:54:15;99828.63;;;23.91;82.83
8051;BME280;4068;42.158;24.732;2023-06-01T06:56:41;99830.50;;;23.90;81.58
8051;BME280;4068;42.158;24.732;2023-06-01T06:59:06;99826.13;;;24.03;81.35
8051;BME280;4068;42.158;24.732;2023-06-01T07:01:32;99824.47;;;24.02;80.99
8051;BME280;4068;42.158;24.732;2023-06-01T07:04:01;99820.91;;;24.01;80.41
8051;BME280;4068;42.158;24.732;2023-06-01T07:06:26;99811.59;;;24.24;79.32
8051;BME280;4068;42.158;24.732;2023-06-01T07:08:52;99795.28;;;23.97;78.93
8051;BME280;4068;42.158;24.732;2023-06-01T07:11:18;99819.94;;;24.22;78.83
8051;BME280;4068;42.158;24.732;2023-06-01T07:13:44;99792.81;;;24.16;77.10
8051;BME280;4068;42.158;24.732;2023-06-01T07:16:09;99800.13;;;24.35;78.00
8051;BME280;4068;42.158;24.732;2023-06-01T07:18:36;99807.25;;;24.43;77.31
8051;BME280;4068;42.158;24.732;2023-06-01T07:21:01;99806.41;;;24.56;77.79
8051;BME280;4068;42.158;24.732;2023-06-01T07:23:27;99798.50;;;24.68;77.16
8051;BME280;4068;42.158;24.732;2023-06-01T07:25:52;99805.16;;;24.45;78.35
8051;BME280;4068;42.158;24.732;2023-06-01T07:28:18;99801.84;;;24.63;78.74
8051;BME280;4068;42.158;24.732;2023-06-01T07:30:43;99786.84;;;24.67;78.88
8051;BME280;4068;42.158;24.732;2023-06-01T07:33:09;99778.25;;;24.90;76.44
8051;BME280;4068;42.158;24.732;2023-06-01T07:35:35;99790.72;;;25.11;75.58
8051;BME280;4068;42.158;24.732;2023-06-01T07:38:00;99785.91;;;25.13;75.50
8051;BME280;4068;42.158;24.732;2023-06-01T07:40:29;99774.34;;;25.38;74.12
8051;BME280;4068;42.158;24.732;2023-06-01T07:42:55;99757.66;;;25.41;72.23
8051;BME280;4068;42.158;24.732;2023-06-01T07:45:21;99784.94;;;25.60;72.15
8051;BME280;4068;42.158;24.732;2023-06-01T07:47:47;99771.56;;;25.58;72.79
8051;BME280;4068;42.158;24.732;2023-06-01T07:50:12;99756.69;;;25.61;71.50
8051;BME280;4068;42.158;24.732;2023-06-01T07:52:38;99785.28;;;25.70;70.21
8051;BME280;4068;42.158;24.732;2023-06-01T07:55:04;99787.00;;;25.58;70.43
8051;BME280;4068;42.158;24.732;2023-06-01T07:57:29;99771.88;;;25.30;69.88
8051;BME280;4068;42.158;24.732;2023-06-01T07:59:55;99773.41;;;25.06;72.68
8051;BME280;4068;42.158;24.732;2023-06-01T08:02:21;99778.72;;;25.39;70.66
8051;BME280;4068;42.158;24.732;2023-06-01T08:04:47;99773.66;;;25.49;70.13
8051;BME280;4068;42.158;24.732;2023-06-01T08:07:13;99770.66;;;25.71;69.65
8051;BME280;4068;42.158;24.732;2023-06-01T08:09:41;99771.84;;;25.82;68.46
8051;BME280;4068;42.158;24.732;2023-06-01T08:12:08;99774.03;;;25.98;67.14
8051;BME280;4068;42.158;24.732;2023-06-01T08:14:36;99766.63;;;25.80;67.85
8051;BME280;4068;42.158;24.732;2023-06-01T08:17:03;99745.91;;;25.86;69.05
8051;BME280;4068;42.158;24.732;2023-06-01T08:19:28;99759.72;;;26.16;66.76
8051;BME280;4068;42.158;24.732;2023-06-01T08:21:54;99764.88;;;25.93;67.29
8051;BME280;4068;42.158;24.732;2023-06-01T08:24:20;99765.09;;;25.91;66.44
8051;BME280;4068;42.158;24.732;2023-06-01T08:26:48;99731.63;;;25.65;68.03
8051;BME280;4068;42.158;24.732;2023-06-01T08:29:13;99761.81;;;25.82;67.16
8051;BME280;4068;42.158;24.732;2023-06-01T08:31:39;99748.72;;;25.34;68.27
8051;BME280;4068;42.158;24.732;2023-06-01T08:34:04;99760.72;;;25.58;68.07
8051;BME280;4068;42.158;24.732;2023-06-01T08:36:30;99762.91;;;25.75;67.19
8051;BME280;4068;42.158;24.732;2023-06-01T08:38:56;99764.44;;;25.64;66.65
8051;BME280;4068;42.158;24.732;2023-06-01T08:41:32;99772.47;;;25.84;65.45
8051;BME280;4068;42.158;24.732;2023-06-01T08:44:03;99756.59;;;25.81;63.97
8051;BME280;4068;42.158;24.732;2023-06-01T08:46:31;99751.69;;;25.96;65.38
8051;BME280;4068;42.158;24.732;2023-06-01T08:48:58;99760.34;;;26.18;63.40
8051;BME280;4068;42.158;24.732;2023-06-01T08:51:24;99733.44;;;26.35;65.38
8051;BME280;4068;42.158;24.732;2023-06-01T08:53:53;99742.75;;;26.72;62.19
8051;BME280;4068;42.158;24.732;2023-06-01T08:56:19;99719.25;;;26.77;58.24
8051;BME280;4068;42.158;24.732;2023-06-01T08:58:47;99723.97;;;26.63;57.62
8051;BME280;4068;42.158;24.732;2023-06-01T09:01:17;99732.91;;;26.70;59.32
8051;BME280;4068;42.158;24.732;2023-06-01T09:03:51;99725.25;;;26.61;59.71
8051;BME280;4068;42.158;24.732;2023-06-01T09:06:17;99725.19;;;26.67;60.43
8051;BME280;4068;42.158;24.732;2023-06-01T09:08:44;99689.88;;;26.61;58.94
8051;BME280;4068;42.158;24.732;2023-06-01T09:11:10;99713.44;;;26.74;59.01
8051;BME280;4068;42.158;24.732;2023-06-01T09:13:40;99714.09;;;26.69;60.67
8051;BME280;4068;42.158;24.732;2023-06-01T09:16:06;99695.81;;;26.95;60.42
8051;BME280;4068;42.158;24.732;2023-06-01T09:18:32;99705.34;;;27.23;58.76
8051;BME280;4068;42.158;24.732;2023-06-01T09:21:13;99686.28;;;27.23;57.07
8051;BME280;4068;42.158;24.732;2023-06-01T09:23:39;99704.28;;;27.24;58.00
8051;BME280;4068;42.158;24.732;2023-06-01T09:26:13;99673.69;;;27.10;56.50
8051;BME280;4068;42.158;24.732;2023-06-01T09:34:02;99692.97;;;27.69;51.00
8051;BME280;4068;42.158;24.732;2023-06-01T09:36:27;99692.69;;;27.28;50.17
8051;BME280;4068;42.158;24.732;2023-06-01T09:39:00;99685.56;;;26.97;51.46
8051;BME280;4068;42.158;24.732;2023-06-01T09:41:26;99655.75;;;26.65;50.01
8051;BME280;4068;42.158;24.732;2023-06-01T09:43:52;99687.44;;;26.96;51.38
8051;BME280;4068;42.158;24.732;2023-06-01T09:46:17;99674.91;;;26.95;49.03
8051;BME280;4068;42.158;24.732;2023-06-01T09:48:43;99683.78;;;27.21;49.90
8051;BME280;4068;42.158;24.732;2023-06-01T09:51:23;99655.78;;;27.32;49.99
8051;BME280;4068;42.158;24.732;2023-06-01T09:53:54;99694.16;;;27.61;48.10
8051;BME280;4068;42.158;24.732;2023-06-01T09:56:19;99676.75;;;27.62;48.60
8051;BME280;4068;42.158;24.732;2023-06-01T09:58:45;99658.28;;;27.34;49.60
8051;BME280;4068;42.158;24.732;2023-06-01T10:01:13;99676.81;;;27.44;51.22
8051;BME280;4068;42.158;24.732;2023-06-01T10:03:42;99673.53;;;27.53;50.46
8051;BME280;4068;42.158;24.732;2023-06-01T10:06:10;99678.38;;;27.51;50.54
8051;BME280;4068;42.158;24.732;2023-06-01T10:08:36;99673.38;;;27.18;50.94
8051;BME280;4068;42.158;24.732;2023-06-01T10:11:01;99667.94;;;27.18;48.66
8051;BME280;4068;42.158;24.732;2023-06-01T10:13:27;99652.06;;;26.96;52.23
8051;BME280;4068;42.158;24.732;2023-06-01T10:15:53;99662.72;;;27.16;50.53
8051;BME280;4068;42.158;24.732;2023-06-01T10:18:20;99655.78;;;27.32;50.61
8051;BME280;4068;42.158;24.732;2023-06-01T10:20:46;99664.59;;;27.46;47.93
8051;BME280;4068;42.158;24.732;2023-06-01T10:23:12;99630.16;;;27.21;48.22
8051;BME280;4068;42.158;24.732;2023-06-01T10:25:44;99647.00;;;27.30;48.88
8051;BME280;4068;42.158;24.732;2023-06-01T10:28:11;99643.81;;;27.33;49.38
8051;BME280;4068;42.158;24.732;2023-06-01T10:30:38;99616.41;;;27.35;48.08
8051;BME280;4068;42.158;24.732;2023-06-01T10:33:03;99638.34;;;27.52;47.53
8051;BME280;4068;42.158;24.732;2023-06-01T10:40:36;99606.19;;;27.61;46.83
8051;BME280;4068;42.158;24.732;2023-06-01T10:43:03;99621.44;;;27.62;47.42
8051;BME280;4068;42.158;24.732;2023-06-01T10:48:01;99623.72;;;27.77;45.91
8051;BME280;4068;42.158;24.732;2023-06-01T10:50:27;99622.13;;;27.99;45.71
8051;BME280;4068;42.158;24.732;2023-06-01T10:52:56;99604.06;;;27.86;45.09
8051;BME280;4068;42.158;24.732;2023-06-01T10:55:41;99607.47;;;27.70;46.20
8051;BME280;4068;42.158;24.732;2023-06-01T10:58:20;99594.00;;;27.87;46.26
8051;BME280;4068;42.158;24.732;2023-06-01T11:00:47;99609.06;;;28.01;45.35
8051;BME280;4068;42.158;24.732;2023-06-01T11:03:13;99604.44;;;28.26;45.09
8051;BME280;4068;42.158;24.732;2023-06-01T11:05:45;99595.31;;;28.44;43.14
8051;BME280;4068;42.158;24.732;2023-06-01T11:10:58;99581.06;;;28.41;44.30
8051;BME280;4068;42.158;24.732;2023-06-01T11:26:45;99561.41;;;28.39;43.98
8051;BME280;4068;42.158;24.732;2023-06-01T11:29:18;99563.75;;;28.48;42.41
8051;BME280;4068;42.158;24.732;2023-06-01T11:31:52;99569.63;;;28.68;40.28
8051;BME280;4068;42.158;24.732;2023-06-01T11:34:19;99561.81;;;28.72;38.90
8051;BME280;4068;42.158;24.732;2023-06-01T11:36:46;99554.00;;;28.92;38.08
8051;BME280;4068;42.158;24.732;2023-06-01T11:39:17;99528.16;;;28.66;38.13
8051;BME280;4068;42.158;24.732;2023-06-01T11:41:44;99550.03;;;28.83;38.09
8051;BME280;4068;42.158;24.732;2023-06-01T11:44:10;99518.41;;;28.87;37.90
8051;BME280;4068;42.158;24.732;2023-06-01T11:46:35;99537.31;;;29.06;38.54
8051;BME280;4068;42.158;24.732;2023-06-01T11:49:05;99522.75;;;29.29;37.60
8051;BME280;4068;42.158;24.732;2023-06-01T11:51:33;99521.34;;;29.43;38.02
8051;BME280;4068;42.158;24.732;2023-06-01T11:54:00;99521.13;;;29.67;38.45
8051;BME280;4068;42.158;24.732;2023-06-01T11:56:34;99500.66;;;29.31;38.58
8051;BME280;4068;42.158;24.732;2023-06-01T11:59:03;99492.13;;;29.27;38.21
8051;BME280;4068;42.158;24.732;2023-06-01T12:01:36;99507.44;;;29.28;38.35
8051;BME280;4068;42.158;24.732;2023-06-01T12:04:12;99499.66;;;29.37;38.77
8051;BME280;4068;42.158;24.732;2023-06-01T12:06:37;99484.44;;;29.41;38.75
8051;BME280;4068;42.158;24.732;2023-06-01T12:09:03;99488.56;;;29.60;37.40
8051;BME280;4068;42.158;24.732;2023-06-01T12:11:32;99480.22;;;29.50;37.36
8051;BME280;4068;42.158;24.732;2023-06-01T12:13:58;99491.63;;;29.30;37.58
8051;BME280;4068;42.158;24.732;2023-06-01T12:16:24;99476.25;;;29.24;36.70
8051;BME280;4068;42.158;24.732;2023-06-01T12:18:53;99481.84;;;29.34;36.66
8051;BME280;4068;42.158;24.732;2023-06-01T12:21:19;99468.44;;;29.50;35.58
8051;BME280;4068;42.158;24.732;2023-06-01T12:23:51;99455.56;;;29.67;34.98
8051;BME280;4068;42.158;24.732;2023-06-01T12:26:16;99468.00;;;29.75;35.62
8051;BME280;4068;42.158;24.732;2023-06-01T12:28:52;99476.97;;;29.53;36.40
8051;BME280;4068;42.158;24.732;2023-06-01T12:31:20;99475.97;;;29.42;36.09
8051;BME280;4068;42.158;24.732;2023-06-01T12:33:47;99457.03;;;29.36;36.53
8051;BME280;4068;42.158;24.732;2023-06-01T12:36:31;99463.41;;;29.24;36.77
8051;BME280;4068;42.158;24.732;2023-06-01T12:38:57;99458.09;;;29.18;36.89
8051;BME280;4068;42.158;24.732;2023-06-01T12:41:26;99470.88;;;29.29;35.99
8051;BME280;4068;42.158;24.732;2023-06-01T12:43:52;99458.59;;;29.15;35.10
8051;BME280;4068;42.158;24.732;2023-06-01T12:46:25;99468.44;;;29.33;34.76
8051;BME280;4068;42.158;24.732;2023-06-01T12:48:53;99456.53;;;29.56;34.43
8051;BME280;4068;42.158;24.732;2023-06-01T12:51:20;99480.53;;;29.54;34.11
8051;BME280;4068;42.158;24.732;2023-06-01T12:53:46;99472.31;;;29.54;34.18
8051;BME280;4068;42.158;24.732;2023-06-01T12:56:12;99458.91;;;29.18;33.31
8051;BME280;4068;42.158;24.732;2023-06-01T12:58:39;99475.91;;;29.37;33.23
8051;BME280;4068;42.158;24.732;2023-06-01T13:01:04;99459.44;;;29.32;34.18
8051;BME280;4068;42.158;24.732;2023-06-01T13:03:30;99449.56;;;29.48;33.92
8051;BME280;4068;42.158;24.732;2023-06-01T13:05:56;99469.41;;;29.77;33.02
8051;BME280;4068;42.158;24.732;2023-06-01T13:08:22;99463.03;;;29.72;33.12
8051;BME280;4068;42.158;24.732;2023-06-01T13:10:49;99433.66;;;29.62;34.03
8051;BME280;4068;42.158;24.732;2023-06-01T13:13:14;99466.69;;;29.60;34.03
8051;BME280;4068;42.158;24.732;2023-06-01T13:15:41;99466.06;;;29.36;32.89
8051;BME280;4068;42.158;24.732;2023-06-01T13:18:07;99456.53;;;29.22;33.86
8051;BME280;4068;42.158;24.732;2023-06-01T13:20:33;99437.75;;;29.25;34.16
8051;BME280;4068;42.158;24.732;2023-06-01T13:22:59;99448.19;;;29.29;33.66
8051;BME280;4068;42.158;24.732;2023-06-01T13:25:24;99461.00;;;29.45;31.81
8051;BME280;4068;42.158;24.732;2023-06-01T13:27:50;99431.47;;;29.25;33.07
8051;BME280;4068;42.158;24.732;2023-06-01T13:30:16;99464.91;;;29.32;34.36
8051;BME280;4068;42.158;24.732;2023-06-01T13:32:43;99432.47;;;29.19;34.51
8051;BME280;4068;42.158;24.732;2023-06-01T13:35:08;99450.09;;;29.67;33.85
8051;BME280;4068;42.158;24.732;2023-06-01T13:37:53;99452.72;;;29.96;33.51
8051;BME280;4068;42.158;24.732;2023-06-01T13:40:18;99427.16;;;29.85;34.07
8051;BME280;4068;42.158;24.732;2023-06-01T13:42:48;99424.69;;;29.84;34.15
8051;BME280;4068;42.158;24.732;2023-06-01T13:45:14;99425.25;;;29.86;34.73
8051;BME280;4068;42.158;24.732;2023-06-01T13:47:39;99450.38;;;30.05;34.29
8051;BME280;4068;42.158;24.732;2023-06-01T13:50:06;99443.50;;;30.24;34.74
8051;BME280;4068;42.158;24.732;2023-06-01T13:52:31;99438.25;;;30.23;34.08
8051;BME280;4068;42.158;24.732;2023-06-01T13:54:57;99424.28;;;29.97;34.58